Time;durP1;ratioP1;P1;durP2;ratioP2;P2;SDS_P1;SDS_P2;PMS_P1;PMS_P2;Temp;Humidity;BMP_temperature;BMP_pressure;BME280_temperature;BME280_humidity;BME280_pressure;Samples;Min_cycle;Max_cycle;Signal;HPM_P1;HPM_P2
2024/01/20 00:00:13;;;;;;;20.67;12.10;;;-1.80;99.90;;;;;;5119812;28;20204;-79
2024/01/20 00:02:39;;;;;;;22.60;12.73;;;-1.70;99.90;;;;;;5121242;28;20245;-79
2024/01/20 00:05:05;;;;;;;27.57;13.27;;;-1.70;99.90;;;;;;5120358;28;20275;-79
2024/01/20 00:07:31;;;;;;;21.17;12.60;;;-1.80;99.90;;;;;;5119703;28;20560;-81
2024/01/20 00:09:57;;;;;;;19.73;11.60;;;-1.80;99.90;;;;;;5100760;28;20216;-79
2024/01/20 00:12:22;;;;;;;17.63;11.37;;;-1.80;99.90;;;;;;5096950;28;20177;-79
2024/01/20 00:14:48;;;;;;;18.00;11.57;;;-1.80;99.90;;;;;;5094891;28;20185;-79
2024/01/20 00:17:13;;;;;;;18.20;10.97;;;-1.90;99.90;;;;;;5101807;28;20229;-79
2024/01/20 00:19:39;;;;;;;22.57;11.67;;;-1.90;99.90;;;;;;5108510;28;20235;-77
2024/01/20 00:22:04;;;;;;;23.73;12.23;;;-1.80;99.90;;;;;;5111880;28;20204;-79
2024/01/20 00:24:30;;;;;;;17.43;10.63;;;-1.90;99.90;;;;;;5101845;28;20192;-79
2024/01/20 00:26:55;;;;;;;19.20;10.63;;;-1.90;99.90;;;;;;5100026;28;20641;-80
2024/01/20 00:29:21;;;;;;;19.67;10.10;;;-1.90;99.90;;;;;;5100270;28;20626;-79
2024/01/20 00:31:47;;;;;;;19.33;11.13;;;-1.90;99.90;;;;;;5099669;28;20182;-80
2024/01/20 00:34:12;;;;;;;18.90;11.47;;;-1.90;99.90;;;;;;5100339;28;20182;-80
2024/01/20 00:36:38;;;;;;;20.33;10.50;;;-1.90;99.90;;;;;;5097845;28;20197;-79
2024/01/20 00:39:04;;;;;;;18.40;11.53;;;-1.90;99.90;;;;;;5099890;28;20188;-80
2024/01/20 00:41:30;;;;;;;19.57;11.70;;;-1.90;99.90;;;;;;5099860;28;20193;-79
2024/01/20 00:43:56;;;;;;;22.23;11.00;;;-1.80;99.90;;;;;;5099993;28;20189;-80
2024/01/20 00:46:21;;;;;;;21.77;12.00;;;-1.90;99.90;;;;;;5099544;28;20184;-79
2024/01/20 00:48:47;;;;;;;17.40;10.97;;;-1.90;99.90;;;;;;5097814;28;20236;-79
2024/01/20 00:51:12;;;;;;;19.77;11.07;;;-1.90;99.90;;;;;;5098055;28;20180;-80
2024/01/20 00:53:38;;;;;;;20.80;10.70;;;-1.90;99.90;;;;;;5095539;28;20261;-78
2024/01/20 00:56:04;;;;;;;19.00;10.63;;;-1.90;99.90;;;;;;5094571;28;20215;-79
2024/01/20 00:58:29;;;;;;;21.33;11.43;;;-1.90;99.90;;;;;;5094176;28;20267;-78
2024/01/20 01:00:55;;;;;;;19.90;12.03;;;-1.90;99.90;;;;;;5099077;28;20218;-79
2024/01/20 01:03:20;;;;;;;20.23;11.27;;;-1.90;99.90;;;;;;5119338;28;20180;-79
2024/01/20 01:05:46;;;;;;;19.67;11.60;;;-1.90;99.90;;;;;;5117886;28;20188;-80
2024/01/20 01:08:12;;;;;;;21.37;11.10;;;-1.90;99.90;;;;;;5118027;28;20169;-80
2024/01/20 01:10:37;;;;;;;20.17;11.73;;;-1.90;99.90;;;;;;5117967;28;20190;-80
2024/01/20 01:13:03;;;;;;;20.73;11.57;;;-1.90;99.90;;;;;;5097975;28;20178;-80
2024/01/20 01:15:30;;;;;;;24.60;11.97;;;-1.90;99.90;;;;;;5099143;28;20178;-80
2024/01/20 01:17:56;;;;;;;19.07;11.77;;;-1.90;99.90;;;;;;5098057;28;20753;-80
2024/01/20 01:20:21;;;;;;;19.10;11.73;;;-1.90;99.90;;;;;;5097733;28;20190;-79
2024/01/20 01:22:48;;;;;;;19.60;10.87;;;-2.00;99.90;;;;;;5098443;28;20182;-79
2024/01/20 01:25:14;;;;;;;21.53;11.83;;;-2.00;99.90;;;;;;5097927;28;20177;-80
2024/01/20 01:27:40;;;;;;;18.53;11.50;;;-2.00;99.90;;;;;;5097828;28;20188;-79
2024/01/20 01:30:07;;;;;;;23.80;12.87;;;-2.00;99.90;;;;;;5099046;28;20229;-80
2024/01/20 01:32:32;;;;;;;20.27;11.30;;;-2.00;99.90;;;;;;5097131;28;20220;-80
2024/01/20 01:34:58;;;;;;;18.67;11.30;;;-2.00;99.90;;;;;;5119007;28;20196;-79
2024/01/20 01:37:23;;;;;;;20.10;11.30;;;-2.00;99.90;;;;;;5119523;28;20211;-80
2024/01/20 01:39:49;;;;;;;20.77;11.17;;;-2.00;99.90;;;;;;5107323;28;20286;-80
2024/01/20 01:42:14;;;;;;;20.93;12.03;;;-2.00;99.90;;;;;;5097024;28;20603;-80
2024/01/20 01:44:40;;;;;;;23.03;12.30;;;-2.00;99.90;;;;;;5097535;28;20667;-80
2024/01/20 01:47:06;;;;;;;21.60;12.17;;;-2.00;99.90;;;;;;5097594;28;20238;-80
2024/01/20 01:49:31;;;;;;;23.23;12.40;;;-2.10;99.90;;;;;;5102675;28;20208;-79
2024/01/20 01:51:57;;;;;;;22.00;11.60;;;-2.00;99.90;;;;;;5119327;28;20177;-80
2024/01/20 01:54:24;;;;;;;21.43;11.50;;;-2.00;99.90;;;;;;5118136;28;20180;-80
2024/01/20 01:56:52;;;;;;;18.50;11.90;;;-2.00;99.90;;;;;;5119507;28;20288;-79
2024/01/20 01:59:18;;;;;;;20.00;11.60;;;-2.00;99.90;;;;;;5117622;28;20706;-80
2024/01/20 02:01:44;;;;;;;22.03;11.90;;;-1.90;99.90;;;;;;5118211;28;20174;-79
2024/01/20 02:04:10;;;;;;;26.00;12.67;;;-1.90;99.90;;;;;;5118280;28;20240;-79
2024/01/20 02:06:35;;;;;;;27.20;13.20;;;-1.90;99.90;;;;;;5119328;28;20170;-80
2024/01/20 02:09:01;;;;;;;19.87;12.30;;;-1.80;99.90;;;;;;5117202;28;20197;-78
2024/01/20 02:11:27;;;;;;;27.83;12.77;;;-1.90;99.90;;;;;;5097348;28;20711;-79
2024/01/20 02:13:54;;;;;;;22.97;13.50;;;-1.80;99.90;;;;;;5097065;28;20264;-80
2024/01/20 02:16:20;;;;;;;26.27;13.67;;;-1.80;99.90;;;;;;5098050;28;20225;-79
2024/01/20 02:18:45;;;;;;;25.50;13.23;;;-1.80;99.90;;;;;;5098520;28;20261;-80
2024/01/20 02:21:11;;;;;;;23.97;13.13;;;-1.70;99.90;;;;;;5098806;28;20251;-79
2024/01/20 02:23:42;;;;;;;25.20;14.07;;;-1.80;99.90;;;;;;5097289;28;20170;-80
2024/01/20 02:26:08;;;;;;;25.80;13.70;;;-1.80;99.90;;;;;;5099262;28;20512;-80
2024/01/20 02:28:34;;;;;;;30.20;14.43;;;-1.70;99.90;;;;;;5101174;28;20192;-78
2024/01/20 02:30:59;;;;;;;26.73;14.97;;;-1.70;99.90;;;;;;5105550;28;20181;-80
2024/01/20 02:33:25;;;;;;;30.27;15.47;;;-1.70;99.90;;;;;;5104427;28;20271;-79
2024/01/20 02:35:50;;;;;;;27.40;14.57;;;-1.70;99.90;;;;;;5113186;28;20189;-80
2024/01/20 02:38:16;;;;;;;23.57;14.53;;;-1.80;99.90;;;;;;5108607;28;20204;-80
2024/01/20 02:40:41;;;;;;;28.47;14.43;;;-1.80;99.90;;;;;;5103977;28;20564;-80
2024/01/20 02:43:07;;;;;;;25.67;14.33;;;-1.80;99.90;;;;;;5104833;28;20195;-80
2024/01/20 02:45:32;;;;;;;26.97;14.13;;;-1.80;99.90;;;;;;5102934;28;20178;-80
2024/01/20 02:47:58;;;;;;;30.27;14.93;;;-1.70;99.90;;;;;;5104771;28;20184;-80
2024/01/20 02:50:24;;;;;;;28.40;14.63;;;-1.70;99.90;;;;;;5111811;28;20266;-80
2024/01/20 02:52:51;;;;;;;24.73;14.47;;;-1.80;99.90;;;;;;5112263;28;20193;-79
2024/01/20 02:55:16;;;;;;;28.33;15.43;;;-1.80;99.90;;;;;;5112930;28;20177;-79
2024/01/20 02:57:42;;;;;;;30.20;15.17;;;-1.70;99.90;;;;;;5113910;28;20742;-79
2024/01/20 03:00:08;;;;;;;29.00;14.80;;;-1.80;99.90;;;;;;5113463;28;20190;-79
2024/01/20 03:02:34;;;;;;;30.13;16.03;;;-1.80;99.90;;;;;;5114406;28;20169;-79
2024/01/20 03:05:00;;;;;;;29.63;14.50;;;-1.70;99.90;;;;;;5113953;28;20242;-79
2024/01/20 03:07:26;;;;;;;26.67;15.17;;;-1.80;99.90;;;;;;5110639;28;20544;-78
2024/01/20 03:09:51;;;;;;;28.87;15.07;;;-1.80;99.90;;;;;;5107022;28;20227;-78
2024/01/20 03:12:17;;;;;;;26.43;14.83;;;-1.80;99.90;;;;;;5106173;28;20269;-78
2024/01/20 03:14:42;;;;;;;28.87;15.17;;;-1.80;99.90;;;;;;5105339;28;20206;-78
2024/01/20 03:17:08;;;;;;;27.07;14.47;;;-1.80;99.90;;;;;;5104864;28;20205;-78
2024/01/20 03:19:33;;;;;;;27.40;14.87;;;-1.80;99.90;;;;;;5105555;28;20194;-79
2024/01/20 03:21:59;;;;;;;24.47;14.33;;;-1.80;99.90;;;;;;5105271;28;20174;-78
2024/01/20 03:24:24;;;;;;;29.73;15.33;;;-1.80;99.90;;;;;;5105794;28;20618;-79
2024/01/20 03:26:50;;;;;;;26.03;14.80;;;-1.80;99.90;;;;;;5102908;28;20170;-79
2024/01/20 03:29:16;;;;;;;25.77;13.80;;;-1.70;99.90;;;;;;5110856;28;20242;-79
2024/01/20 03:31:42;;;;;;;28.90;14.70;;;-1.70;99.90;;;;;;5104825;28;20185;-78
2024/01/20 03:34:08;;;;;;;23.00;14.27;;;-1.70;99.90;;;;;;5096718;28;20193;-79
2024/01/20 03:36:34;;;;;;;27.13;14.97;;;-1.60;99.90;;;;;;5097509;28;20274;-79
2024/01/20 03:39:00;;;;;;;25.90;14.57;;;-1.80;99.90;;;;;;5097887;28;20208;-80
2024/01/20 03:41:25;;;;;;;28.43;14.90;;;-1.70;99.90;;;;;;5098176;28;20178;-79
2024/01/20 03:43:51;;;;;;;25.67;14.50;;;-1.70;99.90;;;;;;5097976;28;20174;-79
2024/01/20 03:46:17;;;;;;;29.33;15.93;;;-1.70;99.90;;;;;;5098328;28;20185;-79
2024/01/20 03:48:43;;;;;;;24.43;14.00;;;-1.70;99.90;;;;;;5100353;28;20198;-79
2024/01/20 03:51:11;;;;;;;24.00;13.87;;;-1.70;99.90;;;;;;5099884;28;20551;-79
2024/01/20 03:53:37;;;;;;;30.93;14.97;;;-1.70;99.90;;;;;;5098973;28;20268;-79
2024/01/20 03:56:02;;;;;;;26.33;14.37;;;-1.70;99.90;;;;;;5099606;28;20231;-79
2024/01/20 03:58:28;;;;;;;25.77;13.70;;;-1.70;99.90;;;;;;5098623;28;20352;-79
2024/01/20 04:00:54;;;;;;;27.90;14.80;;;-1.70;99.90;;;;;;5100028;28;20166;-79
2024/01/20 04:03:19;;;;;;;25.27;13.90;;;-1.70;99.90;;;;;;5098842;28;20668;-80
2024/01/20 04:05:47;;;;;;;25.80;13.37;;;-1.60;99.90;;;;;;5098862;28;20234;-79
2024/01/20 04:08:13;;;;;;;21.73;12.83;;;-1.70;99.90;;;;;;5099826;28;20215;-79
2024/01/20 04:10:38;;;;;;;23.47;13.27;;;-1.60;99.90;;;;;;5099310;28;20186;-78
2024/01/20 04:13:04;;;;;;;20.00;12.60;;;-1.60;99.90;;;;;;5099904;28;20178;-78
2024/01/20 04:15:29;;;;;;;21.57;13.53;;;-1.70;99.90;;;;;;5099520;28;20489;-79
2024/01/20 04:17:55;;;;;;;28.40;13.87;;;-1.60;99.90;;;;;;5098360;28;20206;-79
2024/01/20 04:20:20;;;;;;;24.57;12.40;;;-1.70;99.90;;;;;;5099885;28;20186;-79
2024/01/20 04:22:46;;;;;;;24.50;12.50;;;-1.70;99.90;;;;;;5100055;28;20169;-79
2024/01/20 04:25:13;;;;;;;23.13;13.17;;;-1.50;99.90;;;;;;5100175;28;20305;-80
2024/01/20 04:27:40;;;;;;;19.00;11.80;;;-1.80;99.90;;;;;;5098313;28;20190;-79
2024/01/20 04:30:10;;;;;;;21.93;13.53;;;-1.80;99.90;;;;;;5100208;28;20710;-79
2024/01/20 04:32:36;;;;;;;20.87;12.17;;;-1.80;99.90;;;;;;5100043;28;20178;-79
2024/01/20 04:35:03;;;;;;;22.80;12.87;;;-1.80;99.90;;;;;;5098788;28;20232;-78
2024/01/20 04:37:29;;;;;;;21.27;12.07;;;-1.80;99.90;;;;;;5098843;28;20206;-80
2024/01/20 04:39:56;;;;;;;24.50;12.37;;;-1.90;99.90;;;;;;5120407;28;20315;-79
2024/01/20 04:42:21;;;;;;;20.63;12.30;;;-1.80;99.90;;;;;;5130431;28;20176;-79
2024/01/20 04:44:47;;;;;;;22.17;12.40;;;-1.90;99.90;;;;;;5131732;28;20184;-79
2024/01/20 04:47:12;;;;;;;20.60;12.33;;;-1.90;99.90;;;;;;5132508;28;20172;-78
2024/01/20 04:49:38;;;;;;;25.73;12.73;;;-1.90;99.90;;;;;;5110237;28;20239;-79
2024/01/20 04:52:04;;;;;;;18.83;11.83;;;-1.90;99.90;;;;;;5097852;28;20181;-79
2024/01/20 04:54:29;;;;;;;20.30;11.87;;;-1.90;99.90;;;;;;5097249;28;20557;-79
2024/01/20 04:56:57;;;;;;;17.53;11.70;;;-1.90;99.90;;;;;;5096426;28;20212;-79
2024/01/20 04:59:23;;;;;;;22.03;12.97;;;-2.00;99.90;;;;;;5112956;28;20194;-77
2024/01/20 05:01:48;;;;;;;18.37;11.77;;;-2.00;99.90;;;;;;5116736;28;20174;-79
2024/01/20 05:04:14;;;;;;;18.30;11.77;;;-1.90;99.90;;;;;;5108408;28;20266;-79
2024/01/20 05:06:39;;;;;;;17.87;11.93;;;-1.90;99.90;;;;;;5092900;28;20203;-79
2024/01/20 05:09:05;;;;;;;18.70;11.57;;;-2.00;99.90;;;;;;5093631;28;20206;-78
2024/01/20 05:11:31;;;;;;;20.50;12.67;;;-2.00;99.90;;;;;;5096107;28;20588;-79
2024/01/20 05:13:56;;;;;;;20.40;12.53;;;-2.00;99.90;;;;;;5096458;28;20213;-79
2024/01/20 05:16:22;;;;;;;23.20;11.70;;;-2.00;99.90;;;;;;5094844;28;20288;-79
2024/01/20 05:18:48;;;;;;;23.63;12.87;;;-2.00;99.90;;;;;;5094910;28;20620;-79
2024/01/20 05:21:14;;;;;;;22.23;13.30;;;-2.00;99.90;;;;;;5096457;28;20166;-78
2024/01/20 05:23:40;;;;;;;21.27;12.60;;;-2.00;99.90;;;;;;5096522;28;20657;-79
2024/01/20 05:26:06;;;;;;;20.03;12.17;;;-2.00;99.90;;;;;;5095750;28;20177;-79
2024/01/20 05:28:31;;;;;;;18.70;11.60;;;-2.00;99.90;;;;;;5097495;28;20170;-81
2024/01/20 05:30:57;;;;;;;21.43;13.50;;;-2.00;99.90;;;;;;5095881;28;20189;-79
2024/01/20 05:33:23;;;;;;;26.33;12.23;;;-2.00;99.90;;;;;;5096576;28;20250;-79
2024/01/20 05:35:48;;;;;;;23.97;12.73;;;-2.00;99.90;;;;;;5096960;28;20617;-79
2024/01/20 05:38:14;;;;;;;25.30;12.40;;;-2.00;99.90;;;;;;5095350;28;20282;-79
2024/01/20 05:40:40;;;;;;;25.97;12.77;;;-2.00;99.90;;;;;;5095178;28;20215;-79
2024/01/20 05:43:06;;;;;;;19.53;12.33;;;-2.00;99.90;;;;;;5112725;28;20211;-79
2024/01/20 05:45:32;;;;;;;26.23;12.97;;;-2.00;99.90;;;;;;5106564;28;20174;-79
2024/01/20 05:47:57;;;;;;;22.03;12.67;;;-2.00;99.90;;;;;;5095469;28;20174;-79
2024/01/20 05:50:23;;;;;;;18.93;13.03;;;-1.90;99.90;;;;;;5095502;28;20208;-80
2024/01/20 05:52:50;;;;;;;20.90;13.53;;;-1.90;99.90;;;;;;5096299;28;20167;-79
2024/01/20 05:55:15;;;;;;;20.03;12.73;;;-2.00;99.90;;;;;;5094892;28;20201;-79
2024/01/20 05:57:41;;;;;;;22.40;13.10;;;-2.00;99.90;;;;;;5094709;28;20218;-79
2024/01/20 06:00:09;;;;;;;20.20;12.00;;;-2.00;99.90;;;;;;5095349;28;20208;-79
2024/01/20 06:02:35;;;;;;;23.60;13.03;;;-2.00;99.90;;;;;;5094652;28;20181;-79
2024/01/20 06:05:01;;;;;;;23.37;12.20;;;-2.10;99.90;;;;;;5096687;28;20169;-79
2024/01/20 06:07:27;;;;;;;22.63;12.97;;;-2.10;99.90;;;;;;5095470;28;20197;-80
2024/01/20 06:09:52;;;;;;;25.53;12.87;;;-2.10;99.90;;;;;;5095297;28;20284;-79
2024/01/20 06:12:18;;;;;;;21.27;12.30;;;-2.10;99.90;;;;;;5096301;28;20170;-79
2024/01/20 06:14:44;;;;;;;21.20;13.47;;;-2.10;99.90;;;;;;5095197;28;20172;-79
2024/01/20 06:17:09;;;;;;;22.70;12.23;;;-2.10;99.90;;;;;;5094580;28;20314;-79
2024/01/20 06:19:35;;;;;;;23.13;13.07;;;-2.10;99.90;;;;;;5096243;28;20284;-79
2024/01/20 06:22:00;;;;;;;25.10;13.83;;;-2.10;99.90;;;;;;5096870;28;20261;-79
2024/01/20 06:24:26;;;;;;;24.60;13.33;;;-2.10;99.90;;;;;;5095764;28;20250;-79
2024/01/20 06:26:51;;;;;;;24.43;13.03;;;-2.10;99.90;;;;;;5096346;28;20177;-79
2024/01/20 06:29:17;;;;;;;20.73;13.10;;;-2.10;99.90;;;;;;5097936;28;20205;-80
2024/01/20 06:31:42;;;;;;;19.77;12.47;;;-2.10;99.90;;;;;;5116836;28;20172;-79
2024/01/20 06:34:08;;;;;;;25.83;12.80;;;-2.10;99.90;;;;;;5114765;28;20279;-79
2024/01/20 06:36:33;;;;;;;25.83;14.07;;;-2.10;99.90;;;;;;5115554;28;20199;-79
2024/01/20 06:38:59;;;;;;;25.97;13.43;;;-2.10;99.90;;;;;;5115082;28;20291;-79
2024/01/20 06:41:25;;;;;;;24.40;14.37;;;-2.10;99.90;;;;;;5095434;28;20213;-79
2024/01/20 06:43:50;;;;;;;21.93;12.70;;;-2.20;99.90;;;;;;5096456;28;20176;-79
2024/01/20 06:46:16;;;;;;;22.97;12.17;;;-2.20;99.90;;;;;;5095995;28;20181;-79
2024/01/20 06:48:41;;;;;;;20.57;12.50;;;-2.20;99.90;;;;;;5094207;28;20188;-78
2024/01/20 06:51:09;;;;;;;25.70;12.93;;;-2.20;99.90;;;;;;5095154;28;20190;-79
2024/01/20 06:53:34;;;;;;;20.77;12.23;;;-2.20;99.90;;;;;;5114696;28;20185;-79
2024/01/20 06:56:00;;;;;;;19.80;12.87;;;-2.20;99.90;;;;;;5104161;28;20250;-79
2024/01/20 06:58:25;;;;;;;19.50;11.97;;;-2.30;99.90;;;;;;5097463;28;20181;-78
2024/01/20 07:00:51;;;;;;;20.60;11.93;;;-2.30;99.90;;;;;;5102462;28;20259;-80
2024/01/20 07:03:17;;;;;;;21.57;12.57;;;-2.30;99.90;;;;;;5099285;28;20581;-78
2024/01/20 07:05:43;;;;;;;20.27;12.30;;;-2.30;99.90;;;;;;5095698;28;20169;-79
2024/01/20 07:08:11;;;;;;;22.87;13.47;;;-2.30;99.90;;;;;;5095845;28;20185;-79
2024/01/20 07:10:37;;;;;;;18.40;12.13;;;-2.30;99.90;;;;;;5106152;28;20275;-79
2024/01/20 07:13:02;;;;;;;20.50;11.93;;;-2.30;99.90;;;;;;5116666;28;20181;-79
2024/01/20 07:15:28;;;;;;;20.47;11.97;;;-2.40;99.90;;;;;;5114534;28;20189;-79
2024/01/20 07:17:57;;;;;;;19.50;12.03;;;-2.40;99.90;;;;;;5113523;28;20300;-79
2024/01/20 07:20:23;;;;;;;19.87;12.23;;;-2.30;99.90;;;;;;5108483;28;20783;-79
2024/01/20 07:22:49;;;;;;;19.47;12.13;;;-2.30;99.90;;;;;;5097900;28;20183;-78
2024/01/20 07:25:15;;;;;;;19.87;12.80;;;-2.40;99.90;;;;;;5100230;28;20170;-79
2024/01/20 07:27:41;;;;;;;20.63;12.03;;;-2.40;99.90;;;;;;5099032;28;20177;-79
2024/01/20 07:30:08;;;;;;;19.63;13.10;;;-2.40;99.90;;;;;;5096059;28;20324;-78
2024/01/20 07:32:33;;;;;;;19.50;11.10;;;-2.40;99.90;;;;;;5096040;28;20201;-78
2024/01/20 07:34:59;;;;;;;17.70;11.00;;;-2.40;99.90;;;;;;5095167;28;20184;-78
2024/01/20 07:37:24;;;;;;;18.70;11.60;;;-2.50;99.90;;;;;;5097278;28;20246;-78
2024/01/20 07:39:50;;;;;;;23.20;12.43;;;-2.50;99.90;;;;;;5096426;28;20775;-79
2024/01/20 07:42:15;;;;;;;17.20;10.60;;;-2.50;99.90;;;;;;5095572;28;20172;-78
2024/01/20 07:44:41;;;;;;;20.87;12.43;;;-2.50;99.90;;;;;;5097832;28;20177;-78
2024/01/20 07:47:06;;;;;;;20.10;12.03;;;-2.50;99.90;;;;;;5096631;28;20185;-78
2024/01/20 07:49:32;;;;;;;18.37;12.00;;;-2.60;99.90;;;;;;5097419;28;20285;-78
2024/01/20 07:51:57;;;;;;;18.27;11.93;;;-2.70;99.90;;;;;;5096424;28;20200;-79
2024/01/20 07:54:23;;;;;;;21.93;12.70;;;-2.60;99.90;;;;;;5097806;28;20185;-78
2024/01/20 07:56:48;;;;;;;19.53;11.73;;;-2.60;99.90;;;;;;5096057;28;20732;-80
2024/01/20 07:59:16;;;;;;;18.97;11.80;;;-2.60;99.90;;;;;;5115700;28;20291;-79
2024/01/20 08:01:41;;;;;;;18.47;11.10;;;-2.60;99.90;;;;;;5116377;28;20184;-79
2024/01/20 08:04:07;;;;;;;19.90;10.93;;;-2.70;99.90;;;;;;5116204;28;20637;-78
2024/01/20 08:06:36;;;;;;;22.43;12.23;;;-2.60;99.90;;;;;;5115713;28;20256;-79
2024/01/20 08:09:02;;;;;;;17.23;11.23;;;-2.70;99.90;;;;;;5097850;28;20208;-79
2024/01/20 08:11:27;;;;;;;22.17;11.40;;;-2.70;99.90;;;;;;5095791;28;20177;-79
2024/01/20 08:13:53;;;;;;;21.23;12.60;;;-2.70;99.90;;;;;;5096380;28;20675;-79
2024/01/20 08:16:19;;;;;;;19.30;12.20;;;-2.80;99.90;;;;;;5095863;28;20201;-79
2024/01/20 08:18:45;;;;;;;17.83;11.30;;;-2.80;99.90;;;;;;5095992;28;20231;-78
2024/01/20 08:21:11;;;;;;;20.53;11.60;;;-2.90;99.90;;;;;;5102275;28;20169;-79
2024/01/20 08:23:36;;;;;;;18.73;11.27;;;-2.90;99.90;;;;;;5116269;28;20180;-78
2024/01/20 08:26:03;;;;;;;17.97;11.23;;;-2.80;99.90;;;;;;5117614;28;20659;-79
2024/01/20 08:28:28;;;;;;;19.27;11.53;;;-2.90;99.90;;;;;;5116962;28;20244;-80
2024/01/20 08:30:54;;;;;;;18.43;11.37;;;-2.90;99.90;;;;;;5111307;27;20207;-79
2024/01/20 08:33:19;;;;;;;19.47;11.33;;;-2.90;99.90;;;;;;5096439;28;20197;-79
2024/01/20 08:35:45;;;;;;;21.27;12.20;;;-2.90;99.90;;;;;;5098154;28;20331;-79
2024/01/20 08:38:10;;;;;;;23.07;12.00;;;-3.00;99.90;;;;;;5097582;28;20193;-79
2024/01/20 08:40:36;;;;;;;19.83;12.03;;;-3.00;99.90;;;;;;5096305;28;20563;-78
2024/01/20 08:43:02;;;;;;;23.30;12.17;;;-3.00;99.90;;;;;;5096116;28;20177;-80
2024/01/20 08:45:27;;;;;;;19.00;12.13;;;-2.90;99.90;;;;;;5097623;28;20170;-80
2024/01/20 08:47:53;;;;;;;19.07;11.40;;;-2.90;99.90;;;;;;5097589;28;20183;-80
2024/01/20 08:50:19;;;;;;;18.77;11.30;;;-2.90;99.90;;;;;;5098373;28;20198;-79
2024/01/20 08:52:45;;;;;;;18.23;11.80;;;-2.90;99.90;;;;;;5096380;28;20526;-80
2024/01/20 08:55:10;;;;;;;17.17;10.73;;;-2.90;99.90;;;;;;5096735;28;20203;-79
2024/01/20 08:57:36;;;;;;;17.57;11.63;;;-2.90;99.90;;;;;;5098328;28;20196;-80
2024/01/20 09:00:03;;;;;;;21.60;10.90;;;-2.80;99.90;;;;;;5096947;28;20186;-79
2024/01/20 09:02:28;;;;;;;21.97;11.00;;;-2.80;99.90;;;;;;5097846;28;20187;-79
2024/01/20 09:04:54;;;;;;;17.47;11.83;;;-2.80;99.90;;;;;;5098683;28;20181;-79
2024/01/20 09:07:20;;;;;;;19.53;11.63;;;-2.80;99.90;;;;;;5097967;28;20190;-78
2024/01/20 09:09:46;;;;;;;18.27;11.63;;;-2.80;99.90;;;;;;5099096;28;20196;-79
2024/01/20 09:12:12;;;;;;;19.43;11.53;;;-2.70;99.90;;;;;;5102795;28;20176;-80
2024/01/20 09:14:38;;;;;;;18.13;11.53;;;-2.70;99.90;;;;;;5111660;28;20168;-78
2024/01/20 09:17:04;;;;;;;16.83;10.93;;;-2.70;99.90;;;;;;5103790;28;20194;-78
2024/01/20 09:19:29;;;;;;;15.97;10.50;;;-2.60;99.90;;;;;;5094103;28;20288;-79
2024/01/20 09:21:55;;;;;;;18.83;11.17;;;-2.60;99.90;;;;;;5095980;28;20258;-79
2024/01/20 09:24:20;;;;;;;17.90;10.97;;;-2.60;99.90;;;;;;5095767;28;20256;-77
2024/01/20 09:26:46;;;;;;;18.37;11.70;;;-2.50;99.90;;;;;;5093687;28;20180;-79
2024/01/20 09:29:11;;;;;;;19.30;12.17;;;-2.50;99.90;;;;;;5096170;28;20195;-79
2024/01/20 09:31:37;;;;;;;15.17;11.27;;;-2.50;99.90;;;;;;5096663;28;20172;-79
2024/01/20 09:34:03;;;;;;;16.67;11.03;;;-2.40;99.90;;;;;;5096468;28;20189;-79
2024/01/20 09:36:28;;;;;;;17.43;11.07;;;-2.40;99.90;;;;;;5095846;28;20202;-79
2024/01/20 09:38:54;;;;;;;18.67;11.13;;;-2.40;99.90;;;;;;5095322;28;20768;-79
2024/01/20 09:41:21;;;;;;;17.80;10.53;;;-2.30;99.90;;;;;;5096308;28;20198;-79
2024/01/20 09:43:48;;;;;;;15.03;10.87;;;-2.30;99.90;;;;;;5096825;28;20225;-79
2024/01/20 09:46:13;;;;;;;18.63;10.57;;;-2.20;99.90;;;;;;5097360;28;20198;-79
2024/01/20 09:48:39;;;;;;;18.30;10.73;;;-2.20;99.90;;;;;;5096207;28;20199;-79
2024/01/20 09:51:07;;;;;;;16.60;9.33;;;-2.10;99.90;;;;;;5097250;28;20196;-79
2024/01/20 09:53:34;;;;;;;17.77;10.50;;;-2.10;99.90;;;;;;5094732;28;20203;-79
2024/01/20 09:56:00;;;;;;;17.07;10.67;;;-2.00;99.90;;;;;;5096430;28;20178;-79
2024/01/20 09:58:28;;;;;;;15.03;10.00;;;-1.90;99.90;;;;;;5093923;28;20205;-78
2024/01/20 10:00:54;;;;;;;19.53;10.40;;;-1.90;99.90;;;;;;5094799;28;20211;-78
2024/01/20 10:03:24;;;;;;;15.23;10.20;;;-1.80;99.90;;;;;;5097207;28;20548;-78
2024/01/20 10:05:52;;;;;;;15.43;9.67;;;-1.70;99.90;;;;;;5097990;28;20174;-79
2024/01/20 10:08:17;;;;;;;15.63;9.63;;;-1.70;99.90;;;;;;5096215;28;20172;-78
2024/01/20 10:10:43;;;;;;;15.80;10.80;;;-1.60;99.90;;;;;;5096332;28;20277;-78
2024/01/20 10:13:08;;;;;;;16.10;10.17;;;-1.60;99.90;;;;;;5095586;28;20178;-79
2024/01/20 10:15:35;;;;;;;17.10;9.97;;;-1.50;99.90;;;;;;5096023;28;20251;-78
2024/01/20 10:18:08;;;;;;;14.77;9.13;;;-1.40;99.90;;;;;;5098098;28;20215;-79
2024/01/20 10:20:35;;;;;;;17.50;10.27;;;-1.40;99.90;;;;;;5096083;28;20194;-79
2024/01/20 10:23:03;;;;;;;12.83;9.93;;;-1.30;99.90;;;;;;5096327;28;20263;-79
2024/01/20 10:25:29;;;;;;;15.93;10.23;;;-1.20;99.90;;;;;;5096456;28;20183;-79
2024/01/20 10:27:55;;;;;;;18.50;10.73;;;-1.20;99.90;;;;;;5098566;28;20653;-79
2024/01/20 10:30:22;;;;;;;16.23;10.27;;;-1.10;99.90;;;;;;5098396;28;20220;-79
2024/01/20 10:32:48;;;;;;;16.20;9.70;;;-1.10;99.90;;;;;;5097399;28;20194;-79
2024/01/20 10:35:14;;;;;;;15.43;9.80;;;-1.00;99.90;;;;;;5097242;28;20182;-79
2024/01/20 10:37:45;;;;;;;13.43;9.33;;;-1.00;99.90;;;;;;5098180;28;20230;-79
2024/01/20 10:40:12;;;;;;;15.33;8.97;;;-0.90;99.90;;;;;;5097945;28;20193;-79
2024/01/20 10:42:55;;;;;;;18.63;9.43;;;-0.90;99.90;;;;;;5095250;28;20173;-79
2024/01/20 10:45:22;;;;;;;15.63;9.53;;;-0.80;99.90;;;;;;5096314;28;20284;-79
2024/01/20 10:48:00;;;;;;;13.53;9.60;;;-0.80;99.90;;;;;;5110962;28;20173;-78
2024/01/20 10:50:25;;;;;;;18.20;9.80;;;-0.80;99.90;;;;;;5112125;28;20200;-79
2024/01/20 10:52:51;;;;;;;15.40;9.73;;;-0.80;99.90;;;;;;5098702;28;20221;-79
2024/01/20 10:55:18;;;;;;;15.30;10.13;;;-0.80;99.90;;;;;;5097918;28;20220;-78
2024/01/20 10:57:45;;;;;;;13.33;9.00;;;-0.80;99.90;;;;;;5099851;28;20198;-78
2024/01/20 11:00:12;;;;;;;17.97;9.47;;;-0.70;99.90;;;;;;5098015;28;20661;-78
2024/01/20 11:02:38;;;;;;;14.47;9.90;;;-0.70;99.90;;;;;;5097029;28;20209;-78
2024/01/20 11:05:23;;;;;;;15.03;8.60;;;-0.60;99.90;;;;;;5096351;28;20641;-78
2024/01/20 11:08:08;;;;;;;14.00;8.90;;;-0.60;99.90;;;;;;5096522;28;20175;-78
2024/01/20 11:10:41;;;;;;;14.40;9.43;;;-0.50;99.90;;;;;;5096919;28;20198;-78
2024/01/20 11:13:09;;;;;;;12.30;8.57;;;-0.50;99.90;;;;;;5097960;28;20669;-78
2024/01/20 11:15:34;;;;;;;14.80;9.13;;;-0.40;99.90;;;;;;5099322;28;20205;-78
2024/01/20 11:18:00;;;;;;;16.87;9.20;;;-0.40;99.90;;;;;;5100200;28;20606;-78
2024/01/20 11:20:27;;;;;;;15.70;10.23;;;-0.30;99.90;;;;;;5098768;28;20200;-78
2024/01/20 11:22:55;;;;;;;13.97;9.37;;;-0.30;99.90;;;;;;5100344;28;20176;-78
2024/01/20 11:25:22;;;;;;;15.80;9.43;;;-0.20;99.90;;;;;;5104366;28;20622;-78
2024/01/20 11:27:55;;;;;;;14.77;8.87;;;-0.20;99.90;;;;;;5109451;28;20174;-79
2024/01/20 11:30:27;;;;;;;15.70;9.70;;;-0.10;99.90;;;;;;5099921;28;20551;-79
2024/01/20 11:32:54;;;;;;;18.10;9.83;;;-0.10;99.90;;;;;;5096098;28;20199;-79
2024/01/20 11:35:20;;;;;;;14.57;9.70;;;-0.10;99.90;;;;;;5099459;28;20186;-79
2024/01/20 11:37:47;;;;;;;14.47;9.80;;;-0.10;99.90;;;;;;5097599;28;20212;-78
2024/01/20 11:40:13;;;;;;;17.20;10.03;;;0.00;99.90;;;;;;5098641;28;20255;-78
2024/01/20 11:42:38;;;;;;;13.87;9.40;;;0.10;99.90;;;;;;5098237;28;20228;-78
2024/01/20 11:45:05;;;;;;;12.73;8.53;;;0.10;99.90;;;;;;5098538;28;20244;-79
2024/01/20 11:47:31;;;;;;;14.90;9.30;;;0.10;99.90;;;;;;5098110;28;20178;-79
2024/01/20 11:49:58;;;;;;;14.70;9.13;;;0.20;99.90;;;;;;5099228;28;20265;-78
2024/01/20 11:52:25;;;;;;;15.97;8.80;;;0.30;99.90;;;;;;5098018;28;20175;-79
2024/01/20 11:54:50;;;;;;;14.43;9.20;;;0.20;99.90;;;;;;5097648;28;20391;-79
2024/01/20 11:57:23;;;;;;;16.23;9.97;;;0.30;99.90;;;;;;5097169;28;20681;-79
2024/01/20 11:59:49;;;;;;;18.33;9.50;;;0.30;99.90;;;;;;5097687;28;20190;-77
2024/01/20 12:02:16;;;;;;;17.60;10.53;;;0.40;99.90;;;;;;5099194;28;20654;-79
2024/01/20 12:04:42;;;;;;;15.63;9.37;;;0.40;99.90;;;;;;5097198;28;20174;-79
2024/01/20 12:07:08;;;;;;;13.50;9.10;;;0.50;99.90;;;;;;5098698;28;20216;-79
2024/01/20 12:09:34;;;;;;;14.20;10.10;;;0.50;99.90;;;;;;5096945;28;20281;-79
2024/01/20 12:12:00;;;;;;;13.73;9.47;;;0.50;99.90;;;;;;5097463;28;20219;-78
2024/01/20 12:14:27;;;;;;;15.80;9.63;;;0.60;99.90;;;;;;5097150;28;20639;-79
2024/01/20 12:16:54;;;;;;;17.20;9.33;;;0.60;99.90;;;;;;5098413;28;20219;-79
2024/01/20 12:19:20;;;;;;;14.10;8.50;;;0.70;99.90;;;;;;5097089;28;20573;-81
2024/01/20 12:21:46;;;;;;;13.20;8.90;;;0.70;99.90;;;;;;5097269;28;20194;-79